Time;durP1;ratioP1;P1;durP2;ratioP2;P2;SDS_P1;SDS_P2;PMS_P1;PMS_P2;Temp;Humidity;BMP_temperature;BMP_pressure;BME280_temperature;BME280_humidity;BME280_pressure;Samples;Min_cycle;Max_cycle;Signal;HPM_P1;HPM_P2
2023/03/27 00:00:31;;;;;;;7.30;2.87;;;;;;;;;;5100130;28;20193;-70
2023/03/27 00:02:58;;;;;;;7.60;2.70;;;;;;;;;;5103364;28;20204;-71
2023/03/27 00:05:26;;;;;;;5.23;2.80;;;;;;;;;;5095930;28;20199;-70
2023/03/27 00:07:54;;;;;;;6.67;3.67;;;;;;;;;;5099773;28;20206;-70
2023/03/27 00:10:23;;;;;;;8.03;3.80;;;;;;;;;;5097958;28;20201;-70
2023/03/27 00:12:51;;;;;;;8.57;4.37;;;;;;;;;;5101277;28;20210;-70
2023/03/27 00:15:18;;;;;;;8.57;3.83;;;;;;;;;;5102681;28;20217;-70
2023/03/27 00:17:46;;;;;;;7.37;4.03;;;;;;;;;;5101241;28;20201;-71
2023/03/27 00:20:14;;;;;;;8.57;4.40;;;;;;;;;;5097871;28;20204;-71
2023/03/27 00:22:41;;;;;;;8.50;4.53;;;;;;;;;;5097580;28;20214;-71
2023/03/27 00:25:09;;;;;;;7.97;4.00;;;;;;;;;;5101796;27;20206;-71
2023/03/27 00:27:37;;;;;;;10.17;4.10;;;;;;;;;;5099385;28;20198;-71
2023/03/27 00:30:05;;;;;;;5.57;4.30;;;;;;;;;;5099692;28;20295;-71
2023/03/27 00:32:33;;;;;;;7.30;3.77;;;;;;;;;;5096398;28;20247;-70
2023/03/27 00:35:00;;;;;;;8.13;3.70;;;;;;;;;;5100621;28;20295;-71
2023/03/27 00:37:28;;;;;;;7.47;3.90;;;;;;;;;;5092824;28;20205;-71
2023/03/27 00:39:55;;;;;;;7.67;3.77;;;;;;;;;;5094991;28;20209;-72
2023/03/27 00:42:23;;;;;;;9.30;3.80;;;;;;;;;;5092479;28;20202;-71
2023/03/27 00:44:52;;;;;;;8.10;3.73;;;;;;;;;;5098392;28;20241;-72
2023/03/27 00:47:21;;;;;;;7.80;3.47;;;;;;;;;;5097098;28;20215;-71
2023/03/27 00:49:49;;;;;;;9.10;3.60;;;;;;;;;;5098391;28;20224;-71
2023/03/27 00:52:17;;;;;;;7.10;3.60;;;;;;;;;;5097664;28;20202;-71
2023/03/27 00:54:45;;;;;;;12.70;3.63;;;;;;;;;;5102576;28;20291;-72
2023/03/27 00:57:15;;;;;;;6.57;3.47;;;;;;;;;;5096166;28;20236;-72
2023/03/27 00:59:43;;;;;;;7.90;3.67;;;;;;;;;;5089996;28;20210;-71
2023/03/27 01:02:13;;;;;;;9.20;3.37;;;;;;;;;;5099991;28;20207;-62
2023/03/27 01:04:42;;;;;;;7.63;2.70;;;;;;;;;;5092938;28;20198;-63
2023/03/27 01:07:10;;;;;;;9.47;3.00;;;;;;;;;;5096665;28;20218;-62
2023/03/27 01:09:37;;;;;;;13.00;3.50;;;;;;;;;;5101103;27;20253;-63
2023/03/27 01:12:09;;;;;;;7.67;2.63;;;;;;;;;;5100233;28;20205;-63
2023/03/27 01:14:41;;;;;;;9.53;3.10;;;;;;;;;;5104680;27;20218;-63
2023/03/27 01:17:17;;;;;;;8.00;2.60;;;;;;;;;;5105540;27;20283;-64
2023/03/27 01:19:54;;;;;;;7.03;2.50;;;;;;;;;;5102105;27;20213;-63
2023/03/27 01:22:32;;;;;;;7.10;2.07;;;;;;;;;;5098348;27;20204;-65
2023/03/27 01:25:17;;;;;;;12.63;2.57;;;;;;;;;;5105272;27;20208;-63
2023/03/27 01:28:03;;;;;;;9.33;2.43;;;;;;;;;;5104074;27;20200;-63
2023/03/27 01:30:31;;;;;;;7.73;2.30;;;;;;;;;;5088578;27;20206;-63
2023/03/27 01:33:28;;;;;;;7.33;2.30;;;;;;;;;;5092786;27;20212;-62
2023/03/27 01:36:10;;;;;;;8.87;2.30;;;;;;;;;;5039828;28;20224;-62
2023/03/27 01:38:58;;;;;;;7.13;2.20;;;;;;;;;;5088522;28;20208;-63
2023/03/27 01:41:28;;;;;;;6.13;1.90;;;;;;;;;;5090786;28;20201;-64
2023/03/27 01:43:57;;;;;;;10.07;1.97;;;;;;;;;;5098825;27;20206;-64
2023/03/27 01:46:25;;;;;;;6.63;1.90;;;;;;;;;;5103200;27;20205;-63
2023/03/27 01:48:55;;;;;;;9.37;2.10;;;;;;;;;;5099365;27;20206;-63
2023/03/27 01:51:25;;;;;;;9.77;2.20;;;;;;;;;;5103049;27;20202;-63
2023/03/27 01:53:56;;;;;;;7.30;1.90;;;;;;;;;;5102905;27;20213;-64
2023/03/27 01:56:25;;;;;;;6.93;2.07;;;;;;;;;;5105383;27;20230;-63
2023/03/27 01:58:57;;;;;;;7.10;2.40;;;;;;;;;;5099727;28;20221;-63
2023/03/27 02:01:26;;;;;;;6.20;2.00;;;;;;;;;;5101671;27;20208;-63
2023/03/27 02:03:54;;;;;;;8.60;2.20;;;;;;;;;;5097625;28;20194;-63
2023/03/27 02:06:25;;;;;;;6.60;2.17;;;;;;;;;;5097677;28;20194;-64
2023/03/27 02:08:55;;;;;;;4.93;1.90;;;;;;;;;;5098505;28;20206;-65
2023/03/27 02:11:25;;;;;;;10.57;2.40;;;;;;;;;;5099447;28;20205;-65
2023/03/27 02:13:54;;;;;;;5.83;2.23;;;;;;;;;;5098263;27;20205;-65
2023/03/27 02:16:27;;;;;;;6.90;2.40;;;;;;;;;;5097348;27;20225;-65
2023/03/27 02:18:57;;;;;;;10.97;2.70;;;;;;;;;;5096306;28;20337;-64
2023/03/27 02:21:24;;;;;;;5.93;2.07;;;;;;;;;;5103166;27;20198;-64
2023/03/27 02:23:51;;;;;;;7.50;2.23;;;;;;;;;;5099522;27;20323;-63
2023/03/27 02:26:19;;;;;;;6.40;2.00;;;;;;;;;;5095363;27;20225;-64
2023/03/27 02:28:59;;;;;;;9.00;2.50;;;;;;;;;;5096046;28;20213;-64
2023/03/27 02:31:37;;;;;;;5.80;2.10;;;;;;;;;;5100553;28;20288;-64
2023/03/27 02:34:31;;;;;;;4.70;2.07;;;;;;;;;;5100260;28;20205;-63
2023/03/27 02:37:02;;;;;;;7.37;2.00;;;;;;;;;;5060698;27;20235;-63
2023/03/27 02:39:32;;;;;;;6.70;2.07;;;;;;;;;;5093781;28;20200;-64
2023/03/27 02:42:02;;;;;;;6.77;2.20;;;;;;;;;;5100113;27;20205;-64
2023/03/27 02:44:32;;;;;;;5.50;2.03;;;;;;;;;;5096065;27;20264;-63
2023/03/27 02:47:06;;;;;;;8.50;2.33;;;;;;;;;;5102309;27;20202;-63
2023/03/27 02:49:36;;;;;;;8.20;2.33;;;;;;;;;;5098323;27;20209;-63
2023/03/27 02:52:06;;;;;;;10.80;2.57;;;;;;;;;;5099192;27;20211;-64
2023/03/27 02:54:36;;;;;;;5.17;2.13;;;;;;;;;;5101010;27;20209;-64
2023/03/27 02:57:05;;;;;;;9.40;2.27;;;;;;;;;;5100774;27;20240;-64
2023/03/27 02:59:35;;;;;;;5.43;1.83;;;;;;;;;;5101107;27;20201;-64
2023/03/27 03:02:04;;;;;;;7.50;2.00;;;;;;;;;;5099118;28;20195;-64
2023/03/27 03:04:41;;;;;;;7.20;2.53;;;;;;;;;;5101780;27;20292;-64
2023/03/27 03:07:08;;;;;;;8.00;2.30;;;;;;;;;;5105463;27;20189;-64
2023/03/27 03:09:37;;;;;;;5.80;2.00;;;;;;;;;;5097446;27;20244;-65
2023/03/27 03:12:07;;;;;;;8.27;2.20;;;;;;;;;;5101929;28;20209;-64
2023/03/27 03:14:36;;;;;;;10.87;2.40;;;;;;;;;;5101012;28;20202;-64
2023/03/27 03:17:05;;;;;;;4.93;1.87;;;;;;;;;;5098853;27;20246;-64
2023/03/27 03:19:32;;;;;;;8.50;2.03;;;;;;;;;;5104408;27;20329;-64
2023/03/27 03:22:00;;;;;;;7.07;2.10;;;;;;;;;;5104638;27;20265;-64
2023/03/27 03:24:28;;;;;;;6.07;2.07;;;;;;;;;;5096872;28;20210;-64
2023/03/27 03:26:56;;;;;;;10.17;2.33;;;;;;;;;;5095150;28;20201;-65
2023/03/27 03:29:34;;;;;;;6.63;2.10;;;;;;;;;;5099736;27;20259;-64
2023/03/27 03:32:01;;;;;;;7.90;2.10;;;;;;;;;;5097915;27;20212;-64
2023/03/27 03:34:32;;;;;;;7.67;2.33;;;;;;;;;;5095075;27;20205;-64
2023/03/27 03:36:59;;;;;;;6.20;1.77;;;;;;;;;;5095954;28;20225;-64
2023/03/27 03:39:26;;;;;;;9.77;2.10;;;;;;;;;;5095364;28;20193;-64
2023/03/27 03:41:53;;;;;;;7.90;2.27;;;;;;;;;;5100029;28;20228;-64
2023/03/27 03:44:20;;;;;;;7.93;2.03;;;;;;;;;;5101860;27;20225;-64
2023/03/27 03:46:47;;;;;;;7.97;2.20;;;;;;;;;;5100328;28;20209;-64
2023/03/27 03:49:15;;;;;;;9.60;2.43;;;;;;;;;;5098381;28;20210;-64
2023/03/27 03:51:43;;;;;;;7.87;1.97;;;;;;;;;;5098622;28;20202;-64
2023/03/27 03:54:10;;;;;;;8.97;2.00;;;;;;;;;;5097484;28;20219;-64
2023/03/27 03:56:40;;;;;;;8.77;2.37;;;;;;;;;;5094276;28;20240;-64
2023/03/27 03:59:08;;;;;;;7.60;2.10;;;;;;;;;;5100725;28;20282;-64
2023/03/27 04:01:35;;;;;;;6.90;2.20;;;;;;;;;;5099358;28;20202;-64
2023/03/27 04:04:07;;;;;;;7.77;2.00;;;;;;;;;;5094719;28;20208;-73
2023/03/27 04:06:36;;;;;;;6.87;2.27;;;;;;;;;;5099159;28;20206;-64
2023/03/27 04:09:06;;;;;;;4.23;2.10;;;;;;;;;;5098926;28;20243;-64
2023/03/27 04:11:33;;;;;;;5.93;2.20;;;;;;;;;;5101804;28;20292;-63
2023/03/27 04:14:00;;;;;;;6.17;2.07;;;;;;;;;;5100462;28;20201;-64
2023/03/27 04:16:27;;;;;;;5.47;2.20;;;;;;;;;;5098343;27;20255;-64
2023/03/27 04:18:55;;;;;;;6.63;2.13;;;;;;;;;;5097280;28;20206;-64
2023/03/27 04:21:25;;;;;;;5.40;1.67;;;;;;;;;;5100576;28;20212;-64
2023/03/27 04:23:52;;;;;;;7.00;2.00;;;;;;;;;;5097900;28;20205;-64
2023/03/27 04:26:25;;;;;;;7.53;2.10;;;;;;;;;;5098550;28;20220;-63
2023/03/27 04:28:53;;;;;;;6.27;1.70;;;;;;;;;;5100757;28;20206;-64
2023/03/27 04:31:20;;;;;;;6.57;1.93;;;;;;;;;;5093205;28;20244;-64
2023/03/27 04:33:51;;;;;;;6.17;1.80;;;;;;;;;;5091339;28;20202;-64
2023/03/27 04:36:18;;;;;;;6.97;2.00;;;;;;;;;;5097836;28;20227;-65
2023/03/27 04:38:46;;;;;;;11.20;2.30;;;;;;;;;;5102979;28;20202;-64
2023/03/27 04:41:13;;;;;;;7.23;1.93;;;;;;;;;;5096752;28;20244;-65
2023/03/27 04:43:42;;;;;;;7.23;2.20;;;;;;;;;;5094547;28;20201;-65
2023/03/27 04:46:09;;;;;;;6.27;1.93;;;;;;;;;;5100033;28;20226;-65
2023/03/27 04:48:37;;;;;;;8.47;2.00;;;;;;;;;;5099712;28;20197;-64
2023/03/27 04:51:05;;;;;;;8.90;2.10;;;;;;;;;;5098488;27;20213;-64
2023/03/27 04:53:34;;;;;;;6.87;1.73;;;;;;;;;;5104646;27;20211;-64
2023/03/27 04:56:01;;;;;;;6.73;2.10;;;;;;;;;;5103338;28;20229;-64
2023/03/27 04:58:29;;;;;;;6.20;1.80;;;;;;;;;;5101194;28;20201;-64
2023/03/27 05:00:57;;;;;;;8.13;2.00;;;;;;;;;;5099587;28;20228;-64
2023/03/27 05:03:24;;;;;;;8.97;2.00;;;;;;;;;;5097628;27;20202;-64
2023/03/27 05:05:51;;;;;;;9.57;2.13;;;;;;;;;;5102148;28;20273;-64
2023/03/27 05:08:19;;;;;;;7.17;2.17;;;;;;;;;;5098657;28;20213;-64
2023/03/27 05:10:46;;;;;;;9.23;2.20;;;;;;;;;;5101743;27;20206;-64
2023/03/27 05:13:13;;;;;;;5.10;1.53;;;;;;;;;;5094994;27;20198;-64
2023/03/27 05:15:40;;;;;;;5.37;1.93;;;;;;;;;;5091840;27;20202;-64
2023/03/27 05:18:09;;;;;;;9.87;2.20;;;;;;;;;;5105233;28;20300;-64
2023/03/27 05:20:36;;;;;;;5.63;1.97;;;;;;;;;;5103744;28;20201;-64
2023/03/27 05:23:03;;;;;;;7.73;2.10;;;;;;;;;;5104252;28;20193;-64
2023/03/27 05:25:31;;;;;;;9.17;2.00;;;;;;;;;;5097465;28;20202;-64
2023/03/27 05:27:59;;;;;;;6.47;1.80;;;;;;;;;;5100221;27;20210;-64
2023/03/27 05:30:26;;;;;;;9.03;2.20;;;;;;;;;;5096562;27;20202;-64
2023/03/27 05:32:57;;;;;;;8.10;1.80;;;;;;;;;;5097619;28;20204;-65
2023/03/27 05:35:27;;;;;;;4.67;1.70;;;;;;;;;;5097972;27;20305;-64
2023/03/27 05:37:56;;;;;;;8.73;1.60;;;;;;;;;;5100382;27;20222;-64
2023/03/27 05:40:25;;;;;;;5.73;2.00;;;;;;;;;;5103489;27;20297;-65
2023/03/27 05:42:53;;;;;;;6.07;1.80;;;;;;;;;;5098907;28;20224;-65
2023/03/27 05:45:21;;;;;;;7.37;2.03;;;;;;;;;;5103121;27;20324;-65
2023/03/27 05:47:49;;;;;;;5.70;1.90;;;;;;;;;;5098526;27;20202;-65
2023/03/27 05:50:17;;;;;;;7.20;2.13;;;;;;;;;;5100333;28;20193;-65
2023/03/27 05:52:45;;;;;;;8.17;2.13;;;;;;;;;;5101313;27;20213;-65
2023/03/27 05:55:13;;;;;;;5.17;1.73;;;;;;;;;;5098655;27;20210;-64
2023/03/27 05:57:41;;;;;;;3.87;1.63;;;;;;;;;;5101663;27;20286;-64
2023/03/27 06:00:12;;;;;;;9.00;1.93;;;;;;;;;;5099618;28;20202;-65
2023/03/27 06:02:41;;;;;;;4.90;1.40;;;;;;;;;;5100493;27;20356;-65
2023/03/27 06:05:12;;;;;;;5.77;1.70;;;;;;;;;;5092159;28;20210;-65
2023/03/27 06:07:39;;;;;;;5.60;1.73;;;;;;;;;;5093882;28;20205;-65
2023/03/27 06:10:08;;;;;;;6.77;2.23;;;;;;;;;;5098793;27;20205;-65
2023/03/27 06:12:36;;;;;;;4.67;1.63;;;;;;;;;;5095504;28;20206;-65
2023/03/27 06:15:04;;;;;;;9.37;2.30;;;;;;;;;;5100844;28;20210;-64
2023/03/27 06:17:31;;;;;;;6.43;2.20;;;;;;;;;;5096169;27;20225;-65
2023/03/27 06:19:58;;;;;;;9.67;1.70;;;;;;;;;;5097072;28;20217;-65
2023/03/27 06:22:28;;;;;;;6.97;1.90;;;;;;;;;;5091598;27;20198;-64
2023/03/27 06:24:55;;;;;;;6.33;2.20;;;;;;;;;;5097336;28;20213;-64
2023/03/27 06:27:24;;;;;;;4.90;2.10;;;;;;;;;;5110090;27;20376;-65
2023/03/27 06:29:51;;;;;;;6.00;1.87;;;;;;;;;;5100066;27;20233;-65
2023/03/27 06:32:18;;;;;;;6.47;2.07;;;;;;;;;;5102194;27;20270;-64
2023/03/27 06:34:48;;;;;;;7.57;2.33;;;;;;;;;;5101058;28;20201;-64
2023/03/27 06:37:17;;;;;;;5.37;2.00;;;;;;;;;;5096666;27;20229;-64
2023/03/27 06:39:44;;;;;;;4.37;1.57;;;;;;;;;;5100439;28;20293;-65
2023/03/27 06:42:11;;;;;;;4.93;1.70;;;;;;;;;;5100264;27;20213;-65
2023/03/27 06:44:39;;;;;;;8.83;2.00;;;;;;;;;;5095987;28;20233;-65
2023/03/27 06:47:06;;;;;;;5.30;1.50;;;;;;;;;;5098877;28;20220;-65
2023/03/27 06:49:34;;;;;;;7.00;1.77;;;;;;;;;;5103026;27;20210;-64
2023/03/27 06:52:01;;;;;;;7.90;2.10;;;;;;;;;;5101847;28;20209;-65
2023/03/27 06:54:28;;;;;;;8.13;2.30;;;;;;;;;;5065947;27;20219;-65
2023/03/27 06:56:56;;;;;;;7.03;1.87;;;;;;;;;;5068608;28;20234;-65
2023/03/27 06:59:23;;;;;;;6.67;1.97;;;;;;;;;;5069318;28;20209;-65
2023/03/27 07:01:52;;;;;;;8.63;2.00;;;;;;;;;;5070145;28;20199;-65
2023/03/27 07:04:19;;;;;;;9.40;2.00;;;;;;;;;;5066144;28;20206;-65
2023/03/27 07:06:47;;;;;;;9.43;2.00;;;;;;;;;;5071907;28;20198;-64
2023/03/27 07:09:14;;;;;;;6.30;1.80;;;;;;;;;;5066610;28;20199;-65
2023/03/27 07:11:42;;;;;;;13.20;2.70;;;;;;;;;;5066658;28;20203;-64
2023/03/27 07:14:09;;;;;;;6.67;2.17;;;;;;;;;;5065818;28;20203;-64
2023/03/27 07:16:36;;;;;;;11.17;2.23;;;;;;;;;;5066958;28;20254;-64
2023/03/27 07:19:05;;;;;;;6.23;2.30;;;;;;;;;;5063212;28;20214;-64
2023/03/27 07:21:32;;;;;;;6.67;2.20;;;;;;;;;;5063333;28;20194;-64
2023/03/27 07:23:59;;;;;;;6.47;2.20;;;;;;;;;;5066437;28;20202;-64
2023/03/27 07:26:27;;;;;;;8.77;2.10;;;;;;;;;;5065957;28;20355;-64
2023/03/27 07:28:54;;;;;;;5.93;3.10;;;;;;;;;;5070239;28;20246;-64
2023/03/27 07:31:21;;;;;;;6.57;2.10;;;;;;;;;;5067485;28;20210;-64
2023/03/27 07:33:50;;;;;;;6.53;2.10;;;;;;;;;;5068658;28;20203;-63
2023/03/27 07:36:18;;;;;;;11.57;2.23;;;;;;;;;;5068695;28;20268;-65
2023/03/27 07:38:46;;;;;;;7.13;1.87;;;;;;;;;;5067350;28;20199;-66
2023/03/27 07:41:13;;;;;;;9.60;2.13;;;;;;;;;;5069035;28;20217;-64
2023/03/27 07:43:41;;;;;;;8.47;2.20;;;;;;;;;;5070897;28;20207;-63
2023/03/27 07:46:08;;;;;;;5.57;2.10;;;;;;;;;;5070875;28;20272;-63
2023/03/27 07:48:35;;;;;;;5.63;1.97;;;;;;;;;;5070684;28;20207;-63
2023/03/27 07:51:02;;;;;;;5.93;1.93;;;;;;;;;;5064505;28;20205;-63
2023/03/27 07:53:31;;;;;;;10.47;2.03;;;;;;;;;;5059860;28;20198;-63
2023/03/27 07:55:58;;;;;;;4.73;2.03;;;;;;;;;;5060965;28;20207;-64
2023/03/27 07:58:26;;;;;;;10.33;2.50;;;;;;;;;;5069349;28;20238;-63
2023/03/27 08:00:53;;;;;;;4.60;2.10;;;;;;;;;;5070133;28;20203;-64
2023/03/27 08:03:24;;;;;;;9.63;2.23;;;;;;;;;;5070578;28;20214;-64
2023/03/27 08:05:55;;;;;;;4.33;1.87;;;;;;;;;;5070061;28;20195;-63
2023/03/27 08:08:22;;;;;;;6.63;2.10;;;;;;;;;;5065723;28;20203;-63
2023/03/27 08:10:51;;;;;;;9.87;2.40;;;;;;;;;;5063838;28;20207;-63
2023/03/27 08:13:18;;;;;;;7.03;2.20;;;;;;;;;;5064838;28;20236;-63
2023/03/27 08:15:45;;;;;;;6.93;2.10;;;;;;;;;;5067660;28;20207;-63
2023/03/27 08:18:12;;;;;;;4.47;2.00;;;;;;;;;;5067965;28;20226;-62
2023/03/27 08:20:39;;;;;;;6.90;2.67;;;;;;;;;;5069605;28;20233;-63
2023/03/27 08:23:06;;;;;;;7.93;2.63;;;;;;;;;;5067122;28;20203;-64
2023/03/27 08:25:34;;;;;;;9.70;2.70;;;;;;;;;;5071462;28;20202;-64
2023/03/27 08:28:02;;;;;;;12.20;2.30;;;;;;;;;;5067300;28;20213;-64
2023/03/27 08:30:30;;;;;;;6.33;2.60;;;;;;;;;;5068046;28;20202;-63
2023/03/27 08:32:57;;;;;;;4.40;1.90;;;;;;;;;;5070900;28;20203;-64
2023/03/27 08:35:24;;;;;;;8.43;3.00;;;;;;;;;;5068238;28;20203;-63
2023/03/27 08:37:51;;;;;;;11.93;2.40;;;;;;;;;;5071667;28;20260;-63
2023/03/27 08:40:20;;;;;;;4.03;2.20;;;;;;;;;;5069479;28;20210;-64
2023/03/27 08:42:49;;;;;;;3.90;2.03;;;;;;;;;;5069556;28;20195;-64
2023/03/27 08:45:20;;;;;;;5.87;2.23;;;;;;;;;;5073353;28;20258;-63
2023/03/27 08:47:50;;;;;;;4.50;1.97;;;;;;;;;;5067889;28;20203;-64
2023/03/27 08:50:26;;;;;;;6.57;2.80;;;;;;;;;;5064417;28;20240;-64
2023/03/27 08:52:53;;;;;;;5.83;2.40;;;;;;;;;;5068963;28;20290;-63
2023/03/27 08:55:27;;;;;;;3.77;2.37;;;;;;;;;;5067189;28;20214;-63
2023/03/27 08:57:55;;;;;;;5.37;2.50;;;;;;;;;;5069538;28;20245;-63
2023/03/27 09:00:26;;;;;;;4.43;2.20;;;;;;;;;;5076824;28;20207;-63
2023/03/27 09:02:54;;;;;;;6.73;2.73;;;;;;;;;;5072428;28;20260;-64
2023/03/27 09:05:23;;;;;;;3.73;2.23;;;;;;;;;;5070721;28;20206;-64
2023/03/27 09:07:54;;;;;;;5.07;3.20;;;;;;;;;;5066785;28;20203;-64
2023/03/27 09:10:25;;;;;;;6.47;4.10;;;;;;;;;;5070002;28;20233;-64
2023/03/27 09:12:59;;;;;;;7.10;2.47;;;;;;;;;;5071649;28;20209;-64
2023/03/27 09:15:29;;;;;;;5.70;2.70;;;;;;;;;;5069636;28;20198;-64
2023/03/27 09:17:59;;;;;;;7.73;2.70;;;;;;;;;;5074046;28;20233;-63
2023/03/27 09:20:28;;;;;;;3.80;2.50;;;;;;;;;;5069766;28;20205;-63
2023/03/27 09:22:56;;;;;;;5.00;3.07;;;;;;;;;;5068449;28;20198;-64
2023/03/27 09:25:27;;;;;;;7.40;3.93;;;;;;;;;;5074754;28;20208;-64
2023/03/27 09:27:54;;;;;;;2.73;2.33;;;;;;;;;;5065698;28;20202;-64
2023/03/27 09:30:23;;;;;;;2.97;1.97;;;;;;;;;;5062613;28;20214;-64
2023/03/27 09:32:54;;;;;;;6.57;3.97;;;;;;;;;;5064229;28;20213;-64
2023/03/27 09:35:22;;;;;;;5.70;2.47;;;;;;;;;;5061369;28;20210;-64
2023/03/27 09:37:53;;;;;;;3.53;1.93;;;;;;;;;;5061860;28;20329;-63
2023/03/27 09:40:23;;;;;;;4.30;2.40;;;;;;;;;;5064941;28;20198;-63
2023/03/27 09:42:51;;;;;;;3.93;2.33;;;;;;;;;;5069413;28;20213;-63
2023/03/27 09:45:20;;;;;;;5.47;2.17;;;;;;;;;;5066421;28;20238;-65
2023/03/27 09:47:55;;;;;;;5.27;2.50;;;;;;;;;;5067937;28;20202;-64
2023/03/27 09:50:25;;;;;;;4.47;2.00;;;;;;;;;;5066306;28;20203;-63
2023/03/27 09:52:54;;;;;;;3.57;1.90;;;;;;;;;;5061408;28;20210;-64
2023/03/27 09:55:25;;;;;;;5.03;1.90;;;;;;;;;;5067071;28;20198;-63
2023/03/27 09:57:57;;;;;;;2.07;1.73;;;;;;;;;;5064559;28;20226;-63
2023/03/27 10:00:29;;;;;;;3.67;1.70;;;;;;;;;;5058947;28;20213;-64
2023/03/27 10:03:04;;;;;;;1.70;1.50;;;;;;;;;;5063949;28;20285;-63
2023/03/27 10:05:33;;;;;;;2.57;1.80;;;;;;;;;;5069452;28;20209;-63
2023/03/27 10:08:00;;;;;;;2.57;1.60;;;;;;;;;;5068051;28;20203;-63
2023/03/27 10:10:31;;;;;;;4.87;2.13;;;;;;;;;;5066230;28;20213;-63
2023/03/27 10:12:59;;;;;;;3.30;2.00;;;;;;;;;;5064168;28;20296;-63
2023/03/27 10:15:32;;;;;;;5.23;1.50;;;;;;;;;;5064078;28;20272;-63
2023/03/27 10:17:59;;;;;;;2.47;1.27;;;;;;;;;;5066299;28;20299;-64
2023/03/27 10:20:26;;;;;;;2.60;1.57;;;;;;;;;;5068988;28;20203;-64
2023/03/27 10:22:56;;;;;;;2.53;1.40;;;;;;;;;;5068623;28;20209;-66
2023/03/27 10:25:29;;;;;;;2.40;1.33;;;;;;;;;;5070876;28;20199;-64
2023/03/27 10:28:07;;;;;;;3.17;1.40;;;;;;;;;;5066016;28;20195;-63
2023/03/27 10:30:35;;;;;;;2.73;1.57;;;;;;;;;;5069237;28;20207;-64
2023/03/27 10:33:02;;;;;;;4.70;1.40;;;;;;;;;;5065814;28;20199;-64
2023/03/27 10:35:33;;;;;;;2.20;1.37;;;;;;;;;;5072384;28;20233;-66
2023/03/27 10:38:02;;;;;;;1.77;1.40;;;;;;;;;;5067951;28;20215;-64
2023/03/27 10:40:31;;;;;;;1.70;1.13;;;;;;;;;;5070325;28;20229;-65
2023/03/27 10:43:08;;;;;;;4.23;1.50;;;;;;;;;;5064475;28;20214;-65
2023/03/27 10:45:41;;;;;;;2.47;1.40;;;;;;;;;;5061918;28;20321;-64
2023/03/27 10:48:08;;;;;;;2.10;1.40;;;;;;;;;;5068592;28;20210;-64
2023/03/27 10:50:38;;;;;;;1.77;1.43;;;;;;;;;;5061915;28;20195;-63
2023/03/27 10:53:13;;;;;;;2.10;1.37;;;;;;;;;;5067560;28;20210;-63
2023/03/27 10:55:52;;;;;;;3.03;1.50;;;;;;;;;;5067329;28;20206;-63
2023/03/27 10:58:22;;;;;;;2.13;1.20;;;;;;;;;;5064896;28;20231;-64
2023/03/27 11:00:52;;;;;;;2.00;1.10;;;;;;;;;;5070139;28;20203;-64
2023/03/27 11:03:22;;;;;;;2.03;1.00;;;;;;;;;;5067024;28;20211;-63
2023/03/27 11:05:52;;;;;;;0.83;0.80;;;;;;;;;;5070465;28;20211;-63
2023/03/27 11:08:22;;;;;;;1.77;1.00;;;;;;;;;;5064949;28;20222;-64
2023/03/27 11:10:50;;;;;;;1.13;0.70;;;;;;;;;;5066217;28;20206;-64
2023/03/27 11:13:21;;;;;;;1.37;0.83;;;;;;;;;;5069805;28;20207;-64
2023/03/27 11:15:50;;;;;;;2.00;0.90;;;;;;;;;;5064029;28;20198;-63
2023/03/27 11:18:19;;;;;;;0.50;0.50;;;;;;;;;;5060326;28;20218;-64
2023/03/27 11:20:49;;;;;;;1.23;0.90;;;;;;;;;;5064609;28;20207;-64
2023/03/27 11:23:19;;;;;;;0.60;0.60;;;;;;;;;;5063743;28;20203;-64
2023/03/27 11:25:50;;;;;;;5.83;3.70;;;;;;;;;;5066924;28;20230;-65
2023/03/27 11:28:23;;;;;;;1.50;1.00;;;;;;;;;;5065150;28;20194;-66
2023/03/27 11:30:51;;;;;;;1.20;0.83;;;;;;;;;;5065225;28;20199;-64
2023/03/27 11:33:31;;;;;;;1.70;0.73;;;;;;;;;;5066671;28;20214;-63
2023/03/27 11:36:02;;;;;;;0.70;0.70;;;;;;;;;;5066281;28;20206;-63
2023/03/27 11:38:31;;;;;;;2.93;0.93;;;;;;;;;;5064017;28;20226;-63
2023/03/27 11:41:00;;;;;;;2.30;0.80;;;;;;;;;;5063768;28;20286;-62
2023/03/27 11:43:27;;;;;;;3.27;0.80;;;;;;;;;;5067856;28;20199;-63
2023/03/27 11:46:00;;;;;;;1.17;0.80;;;;;;;;;;5067151;28;20234;-63
2023/03/27 11:48:37;;;;;;;4.10;1.17;;;;;;;;;;5063462;28;20277;-63
2023/03/27 11:51:08;;;;;;;0.93;0.67;;;;;;;;;;5065806;28;20207;-63
2023/03/27 11:53:42;;;;;;;0.80;0.70;;;;;;;;;;5062975;28;20195;-65
2023/03/27 11:56:21;;;;;;;0.87;0.60;;;;;;;;;;5068535;28;20245;-63
2023/03/27 11:58:55;;;;;;;0.80;0.60;;;;;;;;;;5065645;28;20219;-63
2023/03/27 12:01:26;;;;;;;1.53;0.87;;;;;;;;;;5064794;28;20202;-63
2023/03/27 12:04:03;;;;;;;2.60;1.00;;;;;;;;;;5062829;28;20211;-63
2023/03/27 12:06:33;;;;;;;5.43;1.10;;;;;;;;;;5067007;28;20198;-63
2023/03/27 12:09:06;;;;;;;2.47;0.97;;;;;;;;;;5061000;28;20195;-63
2023/03/27 12:11:37;;;;;;;1.10;0.90;;;;;;;;;;5065307;28;20199;-63
2023/03/27 12:14:18;;;;;;;1.37;0.90;;;;;;;;;;5068040;28;20289;-63
2023/03/27 12:17:05;;;;;;;0.97;0.90;;;;;;;;;;5067133;28;20206;-63
2023/03/27 12:19:41;;;;;;;2.60;1.03;;;;;;;;;;5065239;28;20235;-64
2023/03/27 12:22:13;;;;;;;3.83;1.10;;;;;;;;;;5068381;28;20202;-63
2023/03/27 12:24:44;;;;;;;3.03;0.90;;;;;;;;;;5070446;28;20199;-63
2023/03/27 12:27:22;;;;;;;2.63;0.87;;;;;;;;;;5068518;28;20194;-64
2023/03/27 12:29:54;;;;;;;3.83;1.00;;;;;;;;;;5065481;28;20199;-63
2023/03/27 12:32:36;;;;;;;3.03;1.10;;;;;;;;;;5065973;28;20225;-65
2023/03/27 12:35:05;;;;;;;2.23;0.90;;;;;;;;;;5069033;28;20207;-64
2023/03/27 12:37:37;;;;;;;2.77;1.03;;;;;;;;;;5063806;28;20203;-64
2023/03/27 12:40:13;;;;;;;3.43;1.27;;;;;;;;;;5065040;28;20215;-64
2023/03/27 12:42:43;;;;;;;0.90;0.80;;;;;;;;;;5066475;28;20206;-64
2023/03/27 12:45:16;;;;;;;3.40;1.50;;;;;;;;;;5062128;28;20242;-64
2023/03/27 12:47:45;;;;;;;3.07;1.30;;;;;;;;;;5069761;28;20195;-63
2023/03/27 12:50:18;;;;;;;2.90;1.30;;;;;;;;;;5066065;28;20206;-63
2023/03/27 12:52:46;;;;;;;3.23;1.10;;;;;;;;;;5067266;28;20191;-64
2023/03/27 12:55:32;;;;;;;3.07;1.13;;;;;;;;;;5064549;28;20214;-63
2023/03/27 12:58:01;;;;;;;4.20;1.20;;;;;;;;;;5062167;28;20210;-63
2023/03/27 13:00:28;;;;;;;2.90;1.17;;;;;;;;;;5061746;28;20207;-63
2023/03/27 13:03:16;;;;;;;2.43;1.27;;;;;;;;;;5066715;28;20230;-63
2023/03/27 13:05:58;;;;;;;3.13;1.27;;;;;;;;;;5057065;28;20210;-63
2023/03/27 13:08:39;;;;;;;3.57;1.57;;;;;;;;;;5060074;28;20198;-63
2023/03/27 13:11:13;;;;;;;4.10;1.30;;;;;;;;;;5063927;28;20206;-63
2023/03/27 13:13:54;;;;;;;1.80;1.17;;;;;;;;;;5066294;28;20210;-66
2023/03/27 13:16:27;;;;;;;1.70;0.83;;;;;;;;;;5065426;28;20214;-64
2023/03/27 13:19:04;;;;;;;2.93;1.10;;;;;;;;;;5068327;28;20226;-64
2023/03/27 13:21:36;;;;;;;1.77;1.20;;;;;;;;;;5069480;28;20190;-64
2023/03/27 13:24:12;;;;;;;1.10;1.00;;;;;;;;;;5065321;28;20207;-64
2023/03/27 13:26:52;;;;;;;1.83;1.00;;;;;;;;;;5069865;28;20213;-63
2023/03/27 13:29:22;;;;;;;1.43;1.00;;;;;;;;;;5068721;28;20199;-64
2023/03/27 13:32:03;;;;;;;2.07;1.20;;;;;;;;;;5070137;28;20211;-63
2023/03/27 13:34:34;;;;;;;1.97;1.10;;;;;;;;;;5069780;28;20214;-64
2023/03/27 13:37:28;;;;;;;1.17;0.93;;;;;;;;;;5070829;28;20199;-64
2023/03/27 13:40:06;;;;;;;3.17;1.17;;;;;;;;;;5023004;28;20231;-64
2023/03/27 13:42:35;;;;;;;3.93;1.30;;;;;;;;;;5072531;28;20257;-64
2023/03/27 13:45:07;;;;;;;2.50;1.37;;;;;;;;;;5072199;28;20253;-64
2023/03/27 13:47:48;;;;;;;2.50;1.07;;;;;;;;;;5065314;28;20301;-64
2023/03/27 13:50:22;;;;;;;1.83;0.80;;;;;;;;;;5067259;28;20224;-64
2023/03/27 13:52:58;;;;;;;2.13;1.00;;;;;;;;;;5069831;28;20199;-64
2023/03/27 13:55:30;;;;;;;2.40;1.00;;;;;;;;;;5064805;28;20202;-64
2023/03/27 13:58:03;;;;;;;2.30;1.20;;;;;;;;;;5063728;28;20317;-64
2023/03/27 14:00:41;;;;;;;3.10;1.50;;;;;;;;;;5070081;28;20219;-64
2023/03/27 14:03:26;;;;;;;5.17;1.33;;;;;;;;;;5065609;28;20203;-64
2023/03/27 14:06:06;;;;;;;2.83;1.20;;;;;;;;;;5065390;28;20202;-64
2023/03/27 14:08:36;;;;;;;1.83;1.10;;;;;;;;;;5062866;28;20316;-64
2023/03/27 14:11:22;;;;;;;1.23;1.10;;;;;;;;;;5063503;28;20198;-65
2023/03/27 14:13:56;;;;;;;0.87;0.73;;;;;;;;;;5063001;28;20199;-64
2023/03/27 14:16:38;;;;;;;1.10;0.90;;;;;;;;;;5066156;28;20262;-65
2023/03/27 14:19:15;;;;;;;0.93;0.80;;;;;;;;;;5063322;28;20239;-64
2023/03/27 14:21:51;;;;;;;1.80;1.13;;;;;;;;;;5054010;28;20207;-64
2023/03/27 14:24:22;;;;;;;1.90;1.00;;;;;;;;;;5065040;28;20234;-65
2023/03/27 14:26:50;;;;;;;1.67;0.90;;;;;;;;;;5054825;28;20203;-64
2023/03/27 14:29:20;;;;;;;2.47;1.10;;;;;;;;;;5059660;28;20203;-65
2023/03/27 14:31:48;;;;;;;1.20;0.80;;;;;;;;;;5050410;28;20205;-65
2023/03/27 14:34:21;;;;;;;2.67;1.00;;;;;;;;;;5050351;28;20203;-64
2023/03/27 14:36:50;;;;;;;2.63;1.90;;;;;;;;;;5057063;28;20229;-64
2023/03/27 14:39:19;;;;;;;1.33;0.83;;;;;;;;;;5056065;28;20226;-64
2023/03/27 14:41:47;;;;;;;5.50;2.17;;;;;;;;;;5061931;28;20209;-63
2023/03/27 14:44:14;;;;;;;1.87;0.80;;;;;;;;;;5066194;28;20217;-64
2023/03/27 14:46:46;;;;;;;1.13;0.93;;;;;;;;;;5054947;28;20199;-64
2023/03/27 14:49:14;;;;;;;1.50;0.80;;;;;;;;;;5060082;28;20290;-64
2023/03/27 14:51:46;;;;;;;1.33;0.70;;;;;;;;;;5060250;28;20206;-64
2023/03/27 14:54:15;;;;;;;2.97;1.10;;;;;;;;;;5058904;28;20195;-64
2023/03/27 14:56:46;;;;;;;1.90;0.80;;;;;;;;;;5064508;28;20204;-64
2023/03/27 14:59:14;;;;;;;2.80;0.90;;;;;;;;;;5061805;28;20208;-64
2023/03/27 15:01:41;;;;;;;2.17;1.00;;;;;;;;;;5065212;28;20207;-64